sensor_id;sensor_type;location;lat;lon;timestamp;pressure;altitude;pressure_sealevel;temperature;humidity
46211;BME280;52144;48.040;-1.594;2022-07-06T00:01:22;102280.09;;;17.50;94.45
46211;BME280;52144;48.040;-1.594;2022-07-06T00:03:50;102285.50;;;17.50;94.24
46211;BME280;52144;48.040;-1.594;2022-07-06T00:06:21;102284.38;;;17.54;92.58
46211;BME280;52144;48.040;-1.594;2022-07-06T00:08:49;102290.25;;;17.62;92.39
46211;BME280;52144;48.040;-1.594;2022-07-06T00:11:17;102284.38;;;17.54;94.16
46211;BME280;52144;48.040;-1.594;2022-07-06T00:13:46;102279.41;;;17.47;93.25
46211;BME280;52144;48.040;-1.594;2022-07-06T00:16:14;102281.69;;;17.54;93.64
46211;BME280;52144;48.040;-1.594;2022-07-06T00:18:42;102287.09;;;17.54;92.78
46211;BME280;52144;48.040;-1.594;2022-07-06T00:21:10;102291.06;;;17.47;94.84
46211;BME280;52144;48.040;-1.594;2022-07-06T00:23:38;102289.59;;;17.40;95.87
46211;BME280;52144;48.040;-1.594;2022-07-06T00:26:06;102290.38;;;17.24;96.70
46211;BME280;52144;48.040;-1.594;2022-07-06T00:28:34;102288.47;;;17.27;96.45
46211;BME280;52144;48.040;-1.594;2022-07-06T00:31:03;102286.03;;;17.22;96.80
46211;BME280;52144;48.040;-1.594;2022-07-06T00:33:32;102283.09;;;17.27;96.73
46211;BME280;52144;48.040;-1.594;2022-07-06T00:36:00;102275.81;;;17.29;97.07
46211;BME280;52144;48.040;-1.594;2022-07-06T00:38:27;102274.94;;;17.28;96.22
46211;BME280;52144;48.040;-1.594;2022-07-06T00:40:55;102284.22;;;17.40;94.95
46211;BME280;52144;48.040;-1.594;2022-07-06T00:43:23;102285.84;;;17.25;97.16
46211;BME280;52144;48.040;-1.594;2022-07-06T00:45:51;102284.25;;;17.21;97.02
46211;BME280;52144;48.040;-1.594;2022-07-06T00:48:20;102287.31;;;17.32;95.90
46211;BME280;52144;48.040;-1.594;2022-07-06T00:50:49;102286.41;;;17.32;96.95
46211;BME280;52144;48.040;-1.594;2022-07-06T00:53:17;102283.34;;;17.39;94.21
46211;BME280;52144;48.040;-1.594;2022-07-06T00:55:45;102286.09;;;17.38;95.62
46211;BME280;52144;48.040;-1.594;2022-07-06T00:58:13;102291.97;;;17.29;96.18
46211;BME280;52144;48.040;-1.594;2022-07-06T01:00:40;102282.41;;;17.40;95.25
46211;BME280;52144;48.040;-1.594;2022-07-06T01:03:11;102284.38;;;17.37;95.94
46211;BME280;52144;48.040;-1.594;2022-07-06T01:05:40;102291.50;;;17.38;96.20
46211;BME280;52144;48.040;-1.594;2022-07-06T01:08:08;102284.81;;;17.47;95.02
46211;BME280;52144;48.040;-1.594;2022-07-06T01:10:36;102290.63;;;17.37;95.87
46211;BME280;52144;48.040;-1.594;2022-07-06T01:13:04;102278.75;;;17.41;96.13
46211;BME280;52144;48.040;-1.594;2022-07-06T01:15:32;102273.31;;;17.43;93.90
46211;BME280;52144;48.040;-1.594;2022-07-06T01:18:00;102280.53;;;17.42;94.27
46211;BME280;52144;48.040;-1.594;2022-07-06T01:20:29;102283.41;;;17.38;96.58
46211;BME280;52144;48.040;-1.594;2022-07-06T01:22:59;102282.72;;;17.34;97.14
46211;BME280;52144;48.040;-1.594;2022-07-06T01:25:27;102282.66;;;17.17;97.02
46211;BME280;52144;48.040;-1.594;2022-07-06T01:27:55;102286.22;;;17.17;98.07
46211;BME280;52144;48.040;-1.594;2022-07-06T01:30:22;102287.13;;;17.18;96.72
46211;BME280;52144;48.040;-1.594;2022-07-06T01:32:50;102290.22;;;17.28;96.99
46211;BME280;52144;48.040;-1.594;2022-07-06T01:35:18;102281.81;;;17.16;97.00
46211;BME280;52144;48.040;-1.594;2022-07-06T01:37:48;102289.22;;;17.11;98.22
46211;BME280;52144;48.040;-1.594;2022-07-06T01:40:16;102287.97;;;16.99;98.11
46211;BME280;52144;48.040;-1.594;2022-07-06T01:42:44;102283.69;;;16.95;99.40
46211;BME280;52144;48.040;-1.594;2022-07-06T01:45:12;102289.69;;;17.02;98.76
46211;BME280;52144;48.040;-1.594;2022-07-06T01:47:39;102293.06;;;17.05;97.30
46211;BME280;52144;48.040;-1.594;2022-07-06T01:50:08;102289.69;;;17.02;98.35
46211;BME280;52144;48.040;-1.594;2022-07-06T01:52:36;102288.28;;;17.12;97.49
46211;BME280;52144;48.040;-1.594;2022-07-06T01:55:06;102285.91;;;17.06;96.08
46211;BME280;52144;48.040;-1.594;2022-07-06T01:57:34;102275.53;;;16.97;96.50
46211;BME280;52144;48.040;-1.594;2022-07-06T02:00:05;102272.28;;;16.90;97.08
46211;BME280;52144;48.040;-1.594;2022-07-06T02:02:33;102267.69;;;16.73;98.40
46211;BME280;52144;48.040;-1.594;2022-07-06T02:05:01;102268.84;;;16.49;98.71
46211;BME280;52144;48.040;-1.594;2022-07-06T02:07:28;102265.59;;;16.40;100.00
46211;BME280;52144;48.040;-1.594;2022-07-06T02:09:56;102252.69;;;16.49;99.59
46211;BME280;52144;48.040;-1.594;2022-07-06T02:12:26;102255.63;;;16.23;99.56
46211;BME280;52144;48.040;-1.594;2022-07-06T02:14:53;102268.47;;;16.17;100.00
46211;BME280;52144;48.040;-1.594;2022-07-06T02:17:21;102266.59;;;16.19;100.00
46211;BME280;52144;48.040;-1.594;2022-07-06T02:19:49;102262.66;;;16.26;100.00
46211;BME280;52144;48.040;-1.594;2022-07-06T02:22:17;102265.97;;;16.33;100.00
46211;BME280;52144;48.040;-1.594;2022-07-06T02:24:44;102270.53;;;16.31;100.00
46211;BME280;52144;48.040;-1.594;2022-07-06T02:27:12;102270.25;;;16.37;100.00
46211;BME280;52144;48.040;-1.594;2022-07-06T02:29:41;102280.75;;;16.43;100.00
46211;BME280;52144;48.040;-1.594;2022-07-06T02:32:09;102276.69;;;16.72;100.00
46211;BME280;52144;48.040;-1.594;2022-07-06T02:34:37;102273.16;;;16.91;97.71
46211;BME280;52144;48.040;-1.594;2022-07-06T02:37:05;102271.50;;;16.88;96.81
46211;BME280;52144;48.040;-1.594;2022-07-06T02:39:32;102273.94;;;16.55;97.60
46211;BME280;52144;48.040;-1.594;2022-07-06T02:42:00;102267.59;;;16.56;99.62
46211;BME280;52144;48.040;-1.594;2022-07-06T02:44:28;102272.69;;;16.43;98.79
46211;BME280;52144;48.040;-1.594;2022-07-06T02:46:57;102273.25;;;16.50;98.76
46211;BME280;52144;48.040;-1.594;2022-07-06T02:49:25;102268.72;;;16.31;100.00
46211;BME280;52144;48.040;-1.594;2022-07-06T02:51:53;102264.44;;;16.27;98.24
46211;BME280;52144;48.040;-1.594;2022-07-06T02:54:20;102271.38;;;16.12;99.10
46211;BME280;52144;48.040;-1.594;2022-07-06T02:56:48;102257.47;;;16.02;100.00
46211;BME280;52144;48.040;-1.594;2022-07-06T02:59:19;102262.16;;;15.97;99.30
46211;BME280;52144;48.040;-1.594;2022-07-06T03:01:47;102258.38;;;16.01;100.00
46211;BME280;52144;48.040;-1.594;2022-07-06T03:04:16;102260.53;;;15.93;100.00
46211;BME280;52144;48.040;-1.594;2022-07-06T03:06:44;102251.13;;;15.83;100.00
46211;BME280;52144;48.040;-1.594;2022-07-06T03:09:12;102245.44;;;15.91;100.00
46211;BME280;52144;48.040;-1.594;2022-07-06T03:11:40;102249.41;;;16.02;100.00
46211;BME280;52144;48.040;-1.594;2022-07-06T03:14:07;102250.03;;;16.08;100.00
46211;BME280;52144;48.040;-1.594;2022-07-06T03:16:35;102248.69;;;16.18;100.00
46211;BME280;52144;48.040;-1.594;2022-07-06T03:19:03;102251.63;;;16.32;100.00
46211;BME280;52144;48.040;-1.594;2022-07-06T03:21:32;102257.53;;;16.40;100.00
46211;BME280;52144;48.040;-1.594;2022-07-06T03:24:00;102256.03;;;16.54;100.00
46211;BME280;52144;48.040;-1.594;2022-07-06T03:26:28;102271.53;;;16.49;99.11
46211;BME280;52144;48.040;-1.594;2022-07-06T03:28:56;102271.00;;;16.20;99.55
46211;BME280;52144;48.040;-1.594;2022-07-06T03:31:24;102268.03;;;16.26;97.40
46211;BME280;52144;48.040;-1.594;2022-07-06T03:33:52;102266.41;;;15.82;97.88
46211;BME280;52144;48.040;-1.594;2022-07-06T03:36:20;102261.22;;;15.78;100.00
46211;BME280;52144;48.040;-1.594;2022-07-06T03:38:49;102272.09;;;15.75;100.00
46211;BME280;52144;48.040;-1.594;2022-07-06T03:41:17;102266.94;;;15.69;100.00
46211;BME280;52144;48.040;-1.594;2022-07-06T03:43:44;102261.97;;;15.81;100.00
46211;BME280;52144;48.040;-1.594;2022-07-06T03:46:12;102269.59;;;15.70;93.28
46211;BME280;52144;48.040;-1.594;2022-07-06T03:48:40;102271.50;;;15.67;95.64
46211;BME280;52144;48.040;-1.594;2022-07-06T03:51:08;102274.97;;;15.70;96.71
46211;BME280;52144;48.040;-1.594;2022-07-06T03:53:37;102275.75;;;15.74;95.16
46211;BME280;52144;48.040;-1.594;2022-07-06T03:56:06;102283.38;;;15.61;98.65
46211;BME280;52144;48.040;-1.594;2022-07-06T03:58:52;102279.13;;;15.35;97.10
46211;BME280;52144;48.040;-1.594;2022-07-06T04:01:20;102277.75;;;15.24;99.88
46211;BME280;52144;48.040;-1.594;2022-07-06T04:03:49;102278.56;;;15.27;100.00
46211;BME280;52144;48.040;-1.594;2022-07-06T04:06:17;102281.88;;;15.33;100.00
46211;BME280;52144;48.040;-1.594;2022-07-06T04:08:45;102273.38;;;15.44;100.00
46211;BME280;52144;48.040;-1.594;2022-07-06T04:11:14;102274.22;;;15.44;100.00
46211;BME280;52144;48.040;-1.594;2022-07-06T04:13:42;102282.94;;;15.29;100.00
46211;BME280;52144;48.040;-1.594;2022-07-06T04:16:09;102279.84;;;15.38;100.00
46211;BME280;52144;48.040;-1.594;2022-07-06T04:18:37;102286.19;;;15.37;100.00
46211;BME280;52144;48.040;-1.594;2022-07-06T04:21:05;102276.84;;;15.46;100.00
46211;BME280;52144;48.040;-1.594;2022-07-06T04:23:33;102284.00;;;15.47;100.00
46211;BME280;52144;48.040;-1.594;2022-07-06T04:26:01;102284.59;;;15.54;99.52
46211;BME280;52144;48.040;-1.594;2022-07-06T04:28:30;102279.56;;;15.67;100.00
46211;BME280;52144;48.040;-1.594;2022-07-06T04:30:58;102276.06;;;15.87;100.00
46211;BME280;52144;48.040;-1.594;2022-07-06T04:33:26;102285.63;;;15.94;100.00
46211;BME280;52144;48.040;-1.594;2022-07-06T04:35:53;102287.38;;;15.95;99.66
46211;BME280;52144;48.040;-1.594;2022-07-06T04:38:21;102295.31;;;15.98;100.00
46211;BME280;52144;48.040;-1.594;2022-07-06T04:40:49;102296.03;;;16.01;100.00
46211;BME280;52144;48.040;-1.594;2022-07-06T04:43:17;102295.63;;;16.11;100.00
46211;BME280;52144;48.040;-1.594;2022-07-06T04:45:46;102297.56;;;16.28;100.00
46211;BME280;52144;48.040;-1.594;2022-07-06T04:48:14;102297.53;;;16.48;100.00
46211;BME280;52144;48.040;-1.594;2022-07-06T04:50:42;102304.56;;;16.71;99.13
46211;BME280;52144;48.040;-1.594;2022-07-06T04:53:10;102300.09;;;16.70;94.65
46211;BME280;52144;48.040;-1.594;2022-07-06T04:55:38;102299.53;;;16.63;94.47
46211;BME280;52144;48.040;-1.594;2022-07-06T04:58:05;102298.72;;;16.42;94.53
46211;BME280;52144;48.040;-1.594;2022-07-06T05:00:33;102292.59;;;16.39;97.63
46211;BME280;52144;48.040;-1.594;2022-07-06T05:03:03;102294.69;;;16.12;97.33
46211;BME280;52144;48.040;-1.594;2022-07-06T05:05:30;102294.56;;;15.94;100.00
46211;BME280;52144;48.040;-1.594;2022-07-06T05:07:58;102296.97;;;16.00;100.00
46211;BME280;52144;48.040;-1.594;2022-07-06T05:10:26;102292.25;;;16.05;100.00
46211;BME280;52144;48.040;-1.594;2022-07-06T05:12:54;102295.47;;;16.14;100.00
46211;BME280;52144;48.040;-1.594;2022-07-06T05:15:22;102296.75;;;16.25;100.00
46211;BME280;52144;48.040;-1.594;2022-07-06T05:17:50;102300.66;;;16.39;100.00
46211;BME280;52144;48.040;-1.594;2022-07-06T05:20:19;102289.22;;;16.73;100.00
46211;BME280;52144;48.040;-1.594;2022-07-06T05:22:47;102292.00;;;16.91;100.00
46211;BME280;52144;48.040;-1.594;2022-07-06T05:25:15;102296.72;;;17.04;100.00
46211;BME280;52144;48.040;-1.594;2022-07-06T05:27:43;102300.59;;;17.18;100.00
46211;BME280;52144;48.040;-1.594;2022-07-06T05:30:11;102305.53;;;17.08;100.00
46211;BME280;52144;48.040;-1.594;2022-07-06T05:32:39;102305.53;;;17.08;100.00
46211;BME280;52144;48.040;-1.594;2022-07-06T05:35:07;102291.19;;;16.89;100.00
46211;BME280;52144;48.040;-1.594;2022-07-06T05:37:57;102293.00;;;17.07;100.00
46211;BME280;52144;48.040;-1.594;2022-07-06T05:40:24;102298.28;;;17.28;100.00
46211;BME280;52144;48.040;-1.594;2022-07-06T05:42:52;102301.72;;;17.31;100.00
46211;BME280;52144;48.040;-1.594;2022-07-06T05:45:20;102298.69;;;17.20;100.00
46211;BME280;52144;48.040;-1.594;2022-07-06T05:47:49;102304.34;;;17.33;100.00
46211;BME280;52144;48.040;-1.594;2022-07-06T05:50:35;102308.03;;;17.49;100.00
46211;BME280;52144;48.040;-1.594;2022-07-06T05:53:05;102306.38;;;17.64;100.00
46211;BME280;52144;48.040;-1.594;2022-07-06T05:55:44;102308.38;;;17.78;100.00
46211;BME280;52144;48.040;-1.594;2022-07-06T05:58:12;102313.03;;;17.93;100.00
46211;BME280;52144;48.040;-1.594;2022-07-06T06:00:40;102314.34;;;18.02;100.00
46211;BME280;52144;48.040;-1.594;2022-07-06T06:03:08;102326.94;;;18.19;100.00
46211;BME280;52144;48.040;-1.594;2022-07-06T06:05:36;102313.25;;;18.06;100.00
46211;BME280;52144;48.040;-1.594;2022-07-06T06:08:05;102326.47;;;18.28;100.00
46211;BME280;52144;48.040;-1.594;2022-07-06T06:10:33;102327.41;;;18.44;100.00
46211;BME280;52144;48.040;-1.594;2022-07-06T06:13:01;102331.34;;;18.55;100.00
46211;BME280;52144;48.040;-1.594;2022-07-06T06:15:29;102315.59;;;18.63;100.00
46211;BME280;52144;48.040;-1.594;2022-07-06T06:17:56;102325.63;;;18.61;100.00
46211;BME280;52144;48.040;-1.594;2022-07-06T06:20:24;102320.81;;;18.83;100.00
46211;BME280;52144;48.040;-1.594;2022-07-06T06:22:53;102310.09;;;18.98;100.00
46211;BME280;52144;48.040;-1.594;2022-07-06T06:25:30;102318.03;;;19.01;100.00
46211;BME280;52144;48.040;-1.594;2022-07-06T06:27:58;102312.47;;;19.04;100.00
46211;BME280;52144;48.040;-1.594;2022-07-06T06:30:26;102315.44;;;19.15;99.97
46211;BME280;52144;48.040;-1.594;2022-07-06T06:33:05;102324.06;;;19.06;99.49
46211;BME280;52144;48.040;-1.594;2022-07-06T06:35:33;102323.44;;;19.01;99.89
46211;BME280;52144;48.040;-1.594;2022-07-06T06:38:01;102319.44;;;19.08;99.30
46211;BME280;52144;48.040;-1.594;2022-07-06T06:40:30;102318.81;;;19.03;99.91
46211;BME280;52144;48.040;-1.594;2022-07-06T06:42:58;102313.25;;;19.22;99.27
46211;BME280;52144;48.040;-1.594;2022-07-06T06:45:26;102310.63;;;19.52;98.79
46211;BME280;52144;48.040;-1.594;2022-07-06T06:47:54;102319.31;;;19.57;97.32
46211;BME280;52144;48.040;-1.594;2022-07-06T06:50:21;102318.81;;;19.51;97.01
46211;BME280;52144;48.040;-1.594;2022-07-06T06:52:51;102315.09;;;19.68;95.39
46211;BME280;52144;48.040;-1.594;2022-07-06T06:55:19;102320.34;;;19.87;95.42
46211;BME280;52144;48.040;-1.594;2022-07-06T06:57:48;102324.84;;;19.86;94.92
46211;BME280;52144;48.040;-1.594;2022-07-06T07:00:16;102320.94;;;20.06;94.01
46211;BME280;52144;48.040;-1.594;2022-07-06T07:02:44;102330.84;;;20.21;93.00
46211;BME280;52144;48.040;-1.594;2022-07-06T07:05:13;102329.81;;;20.53;92.21
46211;BME280;52144;48.040;-1.594;2022-07-06T07:07:41;102330.50;;;20.56;90.33
46211;BME280;52144;48.040;-1.594;2022-07-06T07:10:09;102332.75;;;20.78;89.31
46211;BME280;52144;48.040;-1.594;2022-07-06T07:12:42;102328.38;;;20.90;90.27
46211;BME280;52144;48.040;-1.594;2022-07-06T07:15:12;102322.69;;;20.95;90.25
46211;BME280;52144;48.040;-1.594;2022-07-06T07:17:40;102322.56;;;20.96;88.52
46211;BME280;52144;48.040;-1.594;2022-07-06T07:20:09;102329.59;;;21.13;89.71
46211;BME280;52144;48.040;-1.594;2022-07-06T07:22:37;102324.66;;;21.20;87.79
46211;BME280;52144;48.040;-1.594;2022-07-06T07:25:06;102323.31;;;21.13;87.99
46211;BME280;52144;48.040;-1.594;2022-07-06T07:27:34;102329.97;;;21.21;86.35
46211;BME280;52144;48.040;-1.594;2022-07-06T07:30:03;102325.44;;;21.08;86.05
46211;BME280;52144;48.040;-1.594;2022-07-06T07:32:32;102323.78;;;21.19;86.41
46211;BME280;52144;48.040;-1.594;2022-07-06T07:35:00;102328.09;;;21.36;84.92
46211;BME280;52144;48.040;-1.594;2022-07-06T07:37:29;102321.56;;;21.53;83.80
46211;BME280;52144;48.040;-1.594;2022-07-06T07:39:57;102324.81;;;21.46;82.29
46211;BME280;52144;48.040;-1.594;2022-07-06T07:42:25;102325.44;;;21.49;81.75
46211;BME280;52144;48.040;-1.594;2022-07-06T07:44:53;102317.72;;;21.70;81.47
46211;BME280;52144;48.040;-1.594;2022-07-06T07:47:21;102330.72;;;21.92;81.75
46211;BME280;52144;48.040;-1.594;2022-07-06T07:53:14;102330.41;;;22.10;79.42
46211;BME280;52144;48.040;-1.594;2022-07-06T07:55:41;102334.88;;;22.11;78.45
46211;BME280;52144;48.040;-1.594;2022-07-06T07:58:09;102324.34;;;22.19;77.59
46211;BME280;52144;48.040;-1.594;2022-07-06T08:00:37;102330.72;;;22.18;77.57
46211;BME280;52144;48.040;-1.594;2022-07-06T08:03:05;102331.31;;;22.36;75.67
46211;BME280;52144;48.040;-1.594;2022-07-06T08:05:32;102327.06;;;22.44;76.40
46211;BME280;52144;48.040;-1.594;2022-07-06T08:08:00;102323.69;;;22.67;76.91
46211;BME280;52144;48.040;-1.594;2022-07-06T08:10:29;102318.94;;;22.70;74.61
46211;BME280;52144;48.040;-1.594;2022-07-06T08:13:17;102329.78;;;22.70;74.03
46211;BME280;52144;48.040;-1.594;2022-07-06T08:15:45;102322.81;;;23.05;72.82
46211;BME280;52144;48.040;-1.594;2022-07-06T08:18:13;102330.25;;;23.27;73.38
46211;BME280;52144;48.040;-1.594;2022-07-06T08:20:41;102322.56;;;23.08;71.09
46211;BME280;52144;48.040;-1.594;2022-07-06T08:23:28;102329.50;;;23.12;71.72
46211;BME280;52144;48.040;-1.594;2022-07-06T08:25:58;102329.38;;;23.50;72.31
46211;BME280;52144;48.040;-1.594;2022-07-06T08:28:25;102328.97;;;23.43;71.31
46211;BME280;52144;48.040;-1.594;2022-07-06T08:30:56;102317.97;;;23.21;70.33
46211;BME280;52144;48.040;-1.594;2022-07-06T08:33:24;102319.78;;;23.33;69.42
46211;BME280;52144;48.040;-1.594;2022-07-06T08:35:53;102326.38;;;23.42;69.13
46211;BME280;52144;48.040;-1.594;2022-07-06T08:38:21;102324.84;;;23.38;68.01
46211;BME280;52144;48.040;-1.594;2022-07-06T08:40:50;102327.75;;;23.23;67.17
46211;BME280;52144;48.040;-1.594;2022-07-06T08:43:20;102327.66;;;23.49;68.72
46211;BME280;52144;48.040;-1.594;2022-07-06T08:45:49;102321.50;;;23.58;68.03
46211;BME280;52144;48.040;-1.594;2022-07-06T08:48:18;102311.44;;;23.72;66.94
46211;BME280;52144;48.040;-1.594;2022-07-06T08:50:47;102310.03;;;23.90;66.20
46211;BME280;52144;48.040;-1.594;2022-07-06T08:53:15;102308.25;;;23.78;65.26
46211;BME280;52144;48.040;-1.594;2022-07-06T08:55:43;102301.88;;;24.01;65.71
46211;BME280;52144;48.040;-1.594;2022-07-06T08:58:11;102295.97;;;24.08;64.79
46211;BME280;52144;48.040;-1.594;2022-07-06T09:00:41;102304.69;;;23.89;61.35
46211;BME280;52144;48.040;-1.594;2022-07-06T09:03:11;102295.22;;;24.06;61.54
46211;BME280;52144;48.040;-1.594;2022-07-06T09:05:40;102302.75;;;24.71;61.66
46211;BME280;52144;48.040;-1.594;2022-07-06T09:08:18;102314.56;;;24.25;58.60
46211;BME280;52144;48.040;-1.594;2022-07-06T09:10:47;102310.63;;;24.29;58.97
46211;BME280;52144;48.040;-1.594;2022-07-06T09:13:14;102308.34;;;24.12;59.25
46211;BME280;52144;48.040;-1.594;2022-07-06T09:15:44;102316.88;;;23.72;61.27
46211;BME280;52144;48.040;-1.594;2022-07-06T09:18:12;102311.38;;;23.85;58.46
46211;BME280;52144;48.040;-1.594;2022-07-06T09:20:40;102307.16;;;24.27;59.02
46211;BME280;52144;48.040;-1.594;2022-07-06T09:23:09;102309.44;;;24.67;57.23
46211;BME280;52144;48.040;-1.594;2022-07-06T09:25:42;102310.88;;;25.05;58.35
46211;BME280;52144;48.040;-1.594;2022-07-06T09:28:14;102312.13;;;25.01;57.25
46211;BME280;52144;48.040;-1.594;2022-07-06T09:30:43;102314.00;;;24.67;56.61
46211;BME280;52144;48.040;-1.594;2022-07-06T09:33:17;102319.81;;;24.96;57.46
46211;BME280;52144;48.040;-1.594;2022-07-06T09:35:45;102327.16;;;24.84;56.30
46211;BME280;52144;48.040;-1.594;2022-07-06T09:38:14;102329.00;;;24.83;57.44
46211;BME280;52144;48.040;-1.594;2022-07-06T09:40:44;102322.69;;;24.72;56.03
46211;BME280;52144;48.040;-1.594;2022-07-06T09:43:15;102324.75;;;24.34;58.39
46211;BME280;52144;48.040;-1.594;2022-07-06T09:45:45;102325.59;;;24.46;57.32
46211;BME280;52144;48.040;-1.594;2022-07-06T09:48:14;102334.34;;;24.74;57.63
46211;BME280;52144;48.040;-1.594;2022-07-06T09:50:46;102330.56;;;24.41;57.36
46211;BME280;52144;48.040;-1.594;2022-07-06T09:53:15;102333.69;;;25.27;59.58
46211;BME280;52144;48.040;-1.594;2022-07-06T09:55:44;102342.09;;;25.35;56.09
46211;BME280;52144;48.040;-1.594;2022-07-06T09:58:12;102344.13;;;25.65;56.52
46211;BME280;52144;48.040;-1.594;2022-07-06T10:00:41;102347.19;;;26.04;56.54
46211;BME280;52144;48.040;-1.594;2022-07-06T10:03:11;102344.00;;;25.55;54.56
46211;BME280;52144;48.040;-1.594;2022-07-06T10:05:41;102337.25;;;25.38;55.52
46211;BME280;52144;48.040;-1.594;2022-07-06T10:08:09;102334.91;;;25.11;55.90
46211;BME280;52144;48.040;-1.594;2022-07-06T10:10:38;102324.31;;;24.86;57.57
46211;BME280;52144;48.040;-1.594;2022-07-06T10:13:07;102316.59;;;24.68;57.71
46211;BME280;52144;48.040;-1.594;2022-07-06T10:15:37;102323.78;;;24.80;58.22
46211;BME280;52144;48.040;-1.594;2022-07-06T10:18:07;102325.75;;;25.12;55.60
46211;BME280;52144;48.040;-1.594;2022-07-06T10:20:38;102335.59;;;26.12;55.81
46211;BME280;52144;48.040;-1.594;2022-07-06T10:23:08;102327.25;;;25.92;54.97
46211;BME280;52144;48.040;-1.594;2022-07-06T10:25:36;102315.56;;;26.01;55.55
46211;BME280;52144;48.040;-1.594;2022-07-06T10:28:05;102323.00;;;26.20;54.46
46211;BME280;52144;48.040;-1.594;2022-07-06T10:30:41;102319.34;;;25.57;55.40
46211;BME280;52144;48.040;-1.594;2022-07-06T10:33:10;102314.53;;;25.38;55.59
46211;BME280;52144;48.040;-1.594;2022-07-06T10:35:42;102318.28;;;25.26;55.71
46211;BME280;52144;48.040;-1.594;2022-07-06T10:38:10;102311.88;;;25.27;56.75
46211;BME280;52144;48.040;-1.594;2022-07-06T10:40:40;102318.38;;;24.69;56.12
46211;BME280;52144;48.040;-1.594;2022-07-06T10:43:35;102326.50;;;24.80;56.30
46211;BME280;52144;48.040;-1.594;2022-07-06T10:46:08;102321.81;;;24.94;56.66
46211;BME280;52144;48.040;-1.594;2022-07-06T10:48:38;102318.91;;;25.40;56.13
46211;BME280;52144;48.040;-1.594;2022-07-06T10:51:09;102308.59;;;26.18;55.00
46211;BME280;52144;48.040;-1.594;2022-07-06T10:53:39;102306.31;;;26.45;53.93
46211;BME280;52144;48.040;-1.594;2022-07-06T10:56:08;102311.22;;;26.20;53.85
46211;BME280;52144;48.040;-1.594;2022-07-06T10:58:54;102318.41;;;25.68;54.78
46211;BME280;52144;48.040;-1.594;2022-07-06T11:01:21;102313.41;;;26.26;53.25
46211;BME280;52144;48.040;-1.594;2022-07-06T11:03:51;102321.53;;;26.68;53.62
46211;BME280;52144;48.040;-1.594;2022-07-06T11:06:34;102318.53;;;26.40;51.35
46211;BME280;52144;48.040;-1.594;2022-07-06T11:09:03;102316.38;;;26.65;51.84
46211;BME280;52144;48.040;-1.594;2022-07-06T11:11:42;102325.47;;;26.75;50.84
46211;BME280;52144;48.040;-1.594;2022-07-06T11:14:13;102299.53;;;27.10;50.79
46211;BME280;52144;48.040;-1.594;2022-07-06T11:17:00;102308.03;;;27.07;49.54
46211;BME280;52144;48.040;-1.594;2022-07-06T11:19:30;102306.59;;;27.22;50.80
46211;BME280;52144;48.040;-1.594;2022-07-06T11:22:05;102303.88;;;26.72;50.31
46211;BME280;52144;48.040;-1.594;2022-07-06T11:24:36;102294.28;;;26.88;50.71
46211;BME280;52144;48.040;-1.594;2022-07-06T11:27:04;102300.50;;;26.59;51.00
46211;BME280;52144;48.040;-1.594;2022-07-06T11:29:33;102289.94;;;26.75;49.47
46211;BME280;52144;48.040;-1.594;2022-07-06T11:32:03;102283.22;;;26.89;50.05
46211;BME280;52144;48.040;-1.594;2022-07-06T11:34:33;102286.50;;;27.24;50.17
46211;BME280;52144;48.040;-1.594;2022-07-06T11:37:04;102283.47;;;27.46;49.52
46211;BME280;52144;48.040;-1.594;2022-07-06T11:39:35;102277.25;;;27.54;49.58
46211;BME280;52144;48.040;-1.594;2022-07-06T11:42:04;102269.19;;;27.72;49.29
46211;BME280;52144;48.040;-1.594;2022-07-06T11:44:32;102267.88;;;27.76;49.63
46211;BME280;52144;48.040;-1.594;2022-07-06T11:47:01;102260.69;;;27.75;49.26
46211;BME280;52144;48.040;-1.594;2022-07-06T11:49:30;102264.75;;;27.51;49.78
46211;BME280;52144;48.040;-1.594;2022-07-06T11:51:58;102273.97;;;27.50;49.48
46211;BME280;52144;48.040;-1.594;2022-07-06T11:54:28;102268.28;;;27.22;49.61
46211;BME280;52144;48.040;-1.594;2022-07-06T11:56:57;102263.72;;;27.33;49.21
46211;BME280;52144;48.040;-1.594;2022-07-06T11:59:28;102255.66;;;27.41;48.82
46211;BME280;52144;48.040;-1.594;2022-07-06T12:02:00;102264.75;;;27.51;49.53
46211;BME280;52144;48.040;-1.594;2022-07-06T12:04:29;102257.47;;;28.09;48.64
46211;BME280;52144;48.040;-1.594;2022-07-06T12:06:59;102260.59;;;28.33;47.91
46211;BME280;52144;48.040;-1.594;2022-07-06T12:09:31;102271.88;;;28.11;48.46
46211;BME280;52144;48.040;-1.594;2022-07-06T12:11:59;102262.53;;;28.04;47.60
46211;BME280;52144;48.040;-1.594;2022-07-06T12:14:29;102276.22;;;27.84;48.62
46211;BME280;52144;48.040;-1.594;2022-07-06T12:17:02;102266.63;;;27.70;46.77
46211;BME280;52144;48.040;-1.594;2022-07-06T12:19:31;102269.34;;;27.99;47.40
46211;BME280;52144;48.040;-1.594;2022-07-06T12:21:59;102267.00;;;28.05;47.18
46211;BME280;52144;48.040;-1.594;2022-07-06T12:24:29;102263.63;;;28.30;47.09
46211;BME280;52144;48.040;-1.594;2022-07-06T12:27:09;102267.78;;;28.34;47.56
46211;BME280;52144;48.040;-1.594;2022-07-06T12:29:38;102259.41;;;27.69;48.20
46211;BME280;52144;48.040;-1.594;2022-07-06T12:32:07;102257.78;;;27.18;48.69
46211;BME280;52144;48.040;-1.594;2022-07-06T12:34:40;102261.28;;;27.69;48.82
46211;BME280;52144;48.040;-1.594;2022-07-06T12:37:09;102258.59;;;28.26;48.28
46211;BME280;52144;48.040;-1.594;2022-07-06T12:39:41;102250.41;;;28.53;46.61
46211;BME280;52144;48.040;-1.594;2022-07-06T12:42:13;102255.28;;;29.15;47.81
46211;BME280;52144;48.040;-1.594;2022-07-06T12:44:46;102254.47;;;29.05;46.63
46211;BME280;52144;48.040;-1.594;2022-07-06T12:47:17;102248.06;;;28.68;46.10
46211;BME280;52144;48.040;-1.594;2022-07-06T12:49:45;102253.34;;;28.97;46.49
46211;BME280;52144;48.040;-1.594;2022-07-06T12:52:14;102251.16;;;29.01;45.97